Time;durP1;ratioP1;P1;durP2;ratioP2;P2;SDS_P1;SDS_P2;PMS_P1;PMS_P2;Temp;Humidity;BMP_temperature;BMP_pressure;BME280_temperature;BME280_humidity;BME280_pressure;Samples;Min_cycle;Max_cycle;Signal;HPM_P1;HPM_P2
2022/10/08 00:00:56;;;;;;;6.50;3.85;;;11.70;79.10;;;;;;5051753;28;20610;-74
2022/10/08 00:03:26;;;;;;;4.00;3.65;;;11.70;79.60;;;;;;5047963;28;20187;-74
2022/10/08 00:06:04;;;;;;;3.65;3.47;;;11.60;78.50;;;;;;5051360;28;20301;-73
2022/10/08 00:08:32;;;;;;;3.95;3.60;;;11.70;79.50;;;;;;5053987;28;20175;-73
2022/10/08 00:11:00;;;;;;;5.35;3.65;;;11.70;80.50;;;;;;5046880;28;21313;-74
2022/10/08 00:13:28;;;;;;;5.00;3.72;;;11.70;80.40;;;;;;5049923;28;20187;-74
2022/10/08 00:15:55;;;;;;;4.18;3.05;;;11.70;80.10;;;;;;5047151;28;20199;-72
2022/10/08 00:18:21;;;;;;;2.58;2.45;;;11.60;79.90;;;;;;5045351;28;20175;-75
2022/10/08 00:20:47;;;;;;;3.20;2.92;;;11.60;80.40;;;;;;5056951;28;20211;-74
2022/10/08 00:23:13;;;;;;;3.83;3.47;;;11.60;79.60;;;;;;5047992;28;20195;-75
2022/10/08 00:25:41;;;;;;;3.70;3.45;;;11.60;79.00;;;;;;5042868;28;20195;-74
2022/10/08 00:28:12;;;;;;;3.47;3.08;;;11.50;78.90;;;;;;5055074;28;20179;-72
2022/10/08 00:30:39;;;;;;;4.30;3.00;;;11.50;79.30;;;;;;5054613;28;20187;-74
2022/10/08 00:33:06;;;;;;;3.35;2.78;;;11.60;79.80;;;;;;5052074;28;20690;-72
2022/10/08 00:35:38;;;;;;;2.53;2.42;;;11.60;79.80;;;;;;5057160;28;20179;-73
2022/10/08 00:38:06;;;;;;;4.30;3.20;;;11.60;79.80;;;;;;5051658;28;20230;-74
2022/10/08 00:40:41;;;;;;;2.90;2.75;;;11.50;79.50;;;;;;5057212;28;20211;-73
2022/10/08 00:43:15;;;;;;;3.38;3.13;;;11.50;79.00;;;;;;5048384;28;20183;-73
2022/10/08 00:45:43;;;;;;;4.35;3.75;;;11.50;79.00;;;;;;5050099;28;20195;-72
2022/10/08 00:48:24;;;;;;;4.65;3.40;;;11.40;79.50;;;;;;5051477;28;20661;-73
2022/10/08 00:50:50;;;;;;;3.40;3.00;;;11.40;79.40;;;;;;5052961;28;20690;-74
2022/10/08 00:53:16;;;;;;;3.50;3.30;;;11.40;81.30;;;;;;5049050;28;20263;-73
2022/10/08 00:55:42;;;;;;;4.78;3.22;;;11.40;81.60;;;;;;5054706;28;20274;-74
2022/10/08 00:58:21;;;;;;;3.20;3.00;;;11.40;81.10;;;;;;5049005;28;20211;-73
2022/10/08 01:00:48;;;;;;;5.93;2.87;;;11.30;80.20;;;;;;5050036;28;20219;-73
2022/10/08 01:03:14;;;;;;;2.95;2.15;;;11.30;82.90;;;;;;5052395;28;20278;-73
2022/10/08 01:05:55;;;;;;;3.50;2.72;;;11.30;82.90;;;;;;5060077;28;20186;-73
2022/10/08 01:08:50;;;;;;;3.88;2.47;;;11.20;82.40;;;;;;5049364;28;20188;-73
2022/10/08 01:11:42;;;;;;;3.80;2.47;;;11.20;82.60;;;;;;5050859;28;20300;-72
2022/10/08 01:14:15;;;;;;;3.20;3.00;;;11.10;81.40;;;;;;5048875;28;20179;-72
2022/10/08 01:16:48;;;;;;;5.40;2.97;;;11.10;81.40;;;;;;5049197;28;20182;-74
2022/10/08 01:19:35;;;;;;;3.40;2.97;;;11.10;81.20;;;;;;5052543;28;20291;-72
2022/10/08 01:22:40;;;;;;;6.18;2.80;;;11.10;81.50;;;;;;5048280;28;20187;-74
2022/10/08 01:25:32;;;;;;;2.42;2.30;;;11.10;80.70;;;;;;5003987;28;20899;-74
2022/10/08 01:28:06;;;;;;;4.20;2.30;;;11.10;81.70;;;;;;5003674;28;20203;-73
2022/10/08 01:30:36;;;;;;;3.33;3.03;;;11.10;82.40;;;;;;5009853;28;21214;-72
2022/10/08 01:33:11;;;;;;;4.47;2.93;;;11.10;83.50;;;;;;5001202;28;20204;-72
2022/10/08 01:35:43;;;;;;;2.20;2.00;;;11.00;82.10;;;;;;5003862;28;20235;-74
2022/10/08 01:38:13;;;;;;;2.73;2.20;;;11.00;81.90;;;;;;5005273;28;20185;-72
2022/10/08 01:40:42;;;;;;;2.65;2.45;;;11.00;82.30;;;;;;5010913;28;20225;-72
2022/10/08 01:43:11;;;;;;;2.08;2.00;;;10.90;82.70;;;;;;5002866;28;20185;-74
2022/10/08 01:45:44;;;;;;;3.05;2.35;;;10.90;82.50;;;;;;5010767;28;20252;-74
2022/10/08 01:48:22;;;;;;;1.95;1.85;;;10.90;81.70;;;;;;5008330;28;20200;-74
2022/10/08 01:51:22;;;;;;;2.08;1.92;;;10.80;82.50;;;;;;5012215;28;20482;-73
2022/10/08 01:53:50;;;;;;;3.03;2.83;;;10.80;81.40;;;;;;4968373;28;20222;-73
2022/10/08 01:56:22;;;;;;;1.97;1.97;;;10.80;81.70;;;;;;4966914;28;20194;-72
2022/10/08 01:58:53;;;;;;;2.53;2.42;;;10.70;81.10;;;;;;4967059;28;20232;-74
2022/10/08 02:01:33;;;;;;;2.27;2.00;;;10.70;81.30;;;;;;4974388;28;20208;-72
2022/10/08 02:06:50;;;;;;;2.80;2.60;;;10.70;81.80;;;;;;5010126;28;20199;-74
2022/10/08 02:09:16;;;;;;;2.25;2.15;;;10.60;81.40;;;;;;5010911;28;20897;-75
2022/10/08 02:11:41;;;;;;;2.88;2.38;;;10.70;82.20;;;;;;4987511;28;20231;-75
2022/10/08 02:14:08;;;;;;;2.00;1.87;;;10.70;82.90;;;;;;5011317;28;20630;-74
2022/10/08 02:16:40;;;;;;;2.88;2.67;;;10.70;82.60;;;;;;5005231;28;20633;-74
2022/10/08 02:19:05;;;;;;;2.50;2.30;;;10.60;82.20;;;;;;5010099;28;20279;-74
2022/10/08 02:21:33;;;;;;;3.58;2.65;;;10.60;82.10;;;;;;5006379;28;20296;-74
2022/10/08 02:24:08;;;;;;;2.60;2.40;;;10.60;82.10;;;;;;5005249;28;20193;-75
2022/10/08 02:26:43;;;;;;;5.83;2.30;;;10.60;82.60;;;;;;5001603;28;20196;-74
2022/10/08 02:29:27;;;;;;;2.50;2.30;;;10.50;81.40;;;;;;5024035;28;20279;-74
2022/10/08 02:32:09;;;;;;;2.08;1.98;;;10.50;82.00;;;;;;5052231;28;20182;-75
2022/10/08 02:34:38;;;;;;;2.43;2.20;;;10.50;82.10;;;;;;5046915;28;20187;-74
2022/10/08 02:37:13;;;;;;;2.47;2.37;;;10.40;81.90;;;;;;5046186;28;20187;-74
2022/10/08 02:39:42;;;;;;;2.78;2.58;;;10.40;82.30;;;;;;5048582;28;20214;-72
2022/10/08 02:42:11;;;;;;;2.90;2.70;;;10.40;82.80;;;;;;5049060;28;20672;-74
2022/10/08 02:44:42;;;;;;;2.65;2.53;;;10.40;82.90;;;;;;5051887;28;20199;-73
2022/10/08 02:47:13;;;;;;;2.70;2.57;;;10.40;82.70;;;;;;5049553;28;20213;-74
2022/10/08 02:49:44;;;;;;;2.73;2.53;;;10.40;82.80;;;;;;5045122;28;20571;-74
2022/10/08 02:52:10;;;;;;;2.15;2.05;;;10.40;83.00;;;;;;5048767;28;20225;-74
2022/10/08 02:54:39;;;;;;;6.00;2.65;;;10.40;83.40;;;;;;5048175;28;20604;-73
2022/10/08 02:57:17;;;;;;;2.55;2.42;;;10.40;83.10;;;;;;5048218;28;20199;-73
2022/10/08 02:59:44;;;;;;;1.77;1.67;;;10.30;82.50;;;;;;5051469;28;20301;-74
2022/10/08 03:02:19;;;;;;;3.30;2.73;;;10.30;83.30;;;;;;5050159;28;20178;-74
2022/10/08 03:04:54;;;;;;;2.92;2.50;;;10.30;82.90;;;;;;5048490;28;20248;-72
2022/10/08 03:07:21;;;;;;;2.20;2.10;;;10.30;82.70;;;;;;5046482;28;20272;-73
2022/10/08 03:09:50;;;;;;;2.35;2.25;;;10.20;82.70;;;;;;5047201;28;20207;-73
2022/10/08 03:12:19;;;;;;;2.38;2.25;;;10.20;83.10;;;;;;5050305;28;20179;-73
2022/10/08 03:14:48;;;;;;;2.92;2.35;;;10.20;83.30;;;;;;5050733;28;20290;-73
2022/10/08 03:17:18;;;;;;;3.10;2.63;;;10.20;83.00;;;;;;5055620;28;20183;-73
2022/10/08 03:19:44;;;;;;;2.73;2.47;;;10.20;82.80;;;;;;5052499;28;20599;-73
2022/10/08 03:22:10;;;;;;;2.50;2.30;;;10.20;83.50;;;;;;5049979;28;20187;-73
2022/10/08 03:24:36;;;;;;;2.75;2.60;;;10.20;83.90;;;;;;5048077;28;20203;-73
2022/10/08 03:27:02;;;;;;;2.22;2.13;;;10.20;84.50;;;;;;5057883;28;20172;-73
2022/10/08 03:29:28;;;;;;;3.50;2.30;;;10.20;84.90;;;;;;5054174;28;20186;-73
2022/10/08 03:31:54;;;;;;;3.37;2.67;;;10.20;84.70;;;;;;5049979;28;20704;-73
2022/10/08 03:34:19;;;;;;;3.73;2.50;;;10.20;84.30;;;;;;5048129;28;20271;-73
2022/10/08 03:36:45;;;;;;;3.40;3.10;;;10.20;84.00;;;;;;5056933;28;20190;-74
2022/10/08 03:39:11;;;;;;;2.50;2.40;;;10.20;84.40;;;;;;5050544;28;20179;-73
2022/10/08 03:41:37;;;;;;;2.40;2.30;;;10.10;84.70;;;;;;5049888;28;20250;-73
2022/10/08 03:44:07;;;;;;;2.90;2.33;;;10.10;84.50;;;;;;5053230;28;20625;-73
2022/10/08 03:46:32;;;;;;;2.40;2.30;;;10.10;84.40;;;;;;5050609;28;20788;-72
2022/10/08 03:48:58;;;;;;;2.87;2.67;;;10.10;84.70;;;;;;5052937;28;20298;-73
2022/10/08 03:51:23;;;;;;;4.90;2.40;;;10.10;85.10;;;;;;5049228;28;20179;-73
2022/10/08 03:53:49;;;;;;;2.60;2.40;;;10.10;85.20;;;;;;5053883;28;20176;-72
2022/10/08 03:56:19;;;;;;;3.23;2.90;;;10.10;85.40;;;;;;5048806;28;20211;-72
2022/10/08 03:58:46;;;;;;;4.13;2.43;;;10.00;84.50;;;;;;5048052;28;20258;-74
2022/10/08 04:01:14;;;;;;;2.77;2.57;;;10.00;84.60;;;;;;5053501;28;20218;-73
2022/10/08 04:03:40;;;;;;;4.10;2.70;;;10.00;85.00;;;;;;5057440;28;20245;-73
2022/10/08 04:06:06;;;;;;;2.33;2.23;;;10.00;84.80;;;;;;5049127;28;20187;-72
2022/10/08 04:08:33;;;;;;;2.60;2.50;;;9.90;84.60;;;;;;5055008;28;20190;-72
2022/10/08 04:11:06;;;;;;;2.33;2.20;;;9.90;85.10;;;;;;5053765;28;20183;-72
2022/10/08 04:13:33;;;;;;;3.20;2.60;;;9.90;85.00;;;;;;5049354;28;20560;-72
2022/10/08 04:16:04;;;;;;;3.27;2.50;;;9.80;84.30;;;;;;5049718;28;20187;-74
2022/10/08 04:18:31;;;;;;;2.27;2.17;;;9.80;84.30;;;;;;5056454;28;20179;-74
2022/10/08 04:21:00;;;;;;;2.43;2.33;;;9.80;84.20;;;;;;5049568;28;20215;-73
2022/10/08 04:23:26;;;;;;;3.23;2.93;;;9.80;84.10;;;;;;5049995;28;20248;-74
2022/10/08 04:25:52;;;;;;;3.00;2.77;;;9.80;84.60;;;;;;5046898;28;20180;-73
2022/10/08 04:28:19;;;;;;;2.57;2.37;;;9.80;84.60;;;;;;5054664;28;20241;-73
2022/10/08 04:30:59;;;;;;;2.90;2.70;;;9.80;85.00;;;;;;5053189;28;20198;-73
2022/10/08 04:33:25;;;;;;;4.57;2.90;;;9.80;84.00;;;;;;5046213;28;20176;-73
2022/10/08 04:35:51;;;;;;;3.57;3.37;;;9.80;85.60;;;;;;5047239;28;20192;-73
2022/10/08 04:38:17;;;;;;;5.50;3.30;;;9.80;85.30;;;;;;5048972;28;20581;-74
2022/10/08 04:40:43;;;;;;;4.17;3.40;;;9.80;85.10;;;;;;5048179;28;20211;-74
2022/10/08 04:43:08;;;;;;;3.10;2.90;;;9.70;84.80;;;;;;5055292;28;20809;-73
2022/10/08 04:45:40;;;;;;;2.90;2.70;;;9.70;85.00;;;;;;5047735;28;20810;-73
2022/10/08 04:48:06;;;;;;;3.10;2.80;;;9.70;84.80;;;;;;5051401;28;20195;-73
2022/10/08 04:50:32;;;;;;;3.60;3.33;;;9.70;85.00;;;;;;5047919;28;20195;-73
2022/10/08 04:52:57;;;;;;;4.80;2.90;;;9.80;85.30;;;;;;5049443;28;20179;-73
2022/10/08 04:55:23;;;;;;;3.53;3.17;;;9.80;85.40;;;;;;5050704;28;20194;-73
2022/10/08 04:57:49;;;;;;;3.27;2.80;;;9.80;85.40;;;;;;5050233;28;20202;-73
2022/10/08 05:00:15;;;;;;;4.17;2.70;;;9.80;85.50;;;;;;5048210;28;20218;-74
2022/10/08 05:02:41;;;;;;;3.10;2.80;;;9.80;85.90;;;;;;5047126;28;20744;-74
2022/10/08 05:05:07;;;;;;;3.43;3.13;;;9.80;85.70;;;;;;5048396;28;20184;-73
2022/10/08 05:07:32;;;;;;;5.00;2.90;;;9.80;85.20;;;;;;5049420;28;20794;-73
2022/10/08 05:09:58;;;;;;;3.30;3.10;;;9.80;85.40;;;;;;5052878;28;20187;-73
2022/10/08 05:12:24;;;;;;;3.70;3.10;;;9.80;85.20;;;;;;5047020;28;20232;-73
2022/10/08 05:14:49;;;;;;;3.73;3.43;;;9.80;85.50;;;;;;5046700;28;20183;-72
2022/10/08 05:17:15;;;;;;;3.00;2.80;;;9.80;85.80;;;;;;5048223;28;20279;-72
2022/10/08 05:19:41;;;;;;;4.63;3.13;;;9.80;86.00;;;;;;5054717;28;20198;-75
2022/10/08 05:22:06;;;;;;;2.83;2.67;;;9.80;86.30;;;;;;5053760;28;20175;-72
2022/10/08 05:24:32;;;;;;;3.60;3.30;;;9.80;86.10;;;;;;5047691;28;20179;-73
2022/10/08 05:26:58;;;;;;;4.07;3.67;;;9.80;86.00;;;;;;5050054;28;20201;-74
2022/10/08 05:29:24;;;;;;;3.00;2.80;;;9.80;85.90;;;;;;5046482;28;20192;-74
2022/10/08 05:31:50;;;;;;;2.87;2.67;;;9.80;86.30;;;;;;5051313;28;20210;-72
2022/10/08 05:34:16;;;;;;;4.23;3.07;;;9.80;86.00;;;;;;5046981;28;20842;-75
2022/10/08 05:36:41;;;;;;;3.13;2.80;;;9.80;86.10;;;;;;5048588;28;20321;-75
2022/10/08 05:39:07;;;;;;;2.70;2.45;;;9.90;86.20;;;;;;5047563;28;20183;-75
2022/10/08 05:41:36;;;;;;;2.60;2.43;;;9.90;86.40;;;;;;5046488;28;20194;-74
2022/10/08 05:44:02;;;;;;;2.60;2.47;;;9.90;86.40;;;;;;5063812;28;20579;-75
2022/10/08 05:46:30;;;;;;;2.60;2.50;;;10.00;86.70;;;;;;5056121;28;20190;-74
2022/10/08 05:48:58;;;;;;;3.10;2.87;;;10.00;86.50;;;;;;5057671;28;20958;-74
2022/10/08 05:51:24;;;;;;;3.83;2.97;;;10.00;86.30;;;;;;5053931;28;20594;-73
2022/10/08 05:53:51;;;;;;;3.57;3.13;;;10.10;86.80;;;;;;5056283;28;20302;-73
2022/10/08 05:56:20;;;;;;;3.77;3.40;;;10.20;86.40;;;;;;5048571;28;20183;-74
2022/10/08 05:58:47;;;;;;;3.97;3.17;;;10.20;86.40;;;;;;5046796;28;20567;-73
2022/10/08 06:01:30;;;;;;;3.43;3.23;;;10.20;86.20;;;;;;5047824;28;20210;-74
2022/10/08 06:04:02;;;;;;;3.70;3.50;;;10.30;85.90;;;;;;5045627;28;20188;-74
2022/10/08 06:06:28;;;;;;;9.60;3.43;;;10.40;86.10;;;;;;5048339;28;20186;-74
2022/10/08 06:08:55;;;;;;;3.70;3.40;;;10.50;86.40;;;;;;5046177;28;20187;-74
2022/10/08 06:11:21;;;;;;;3.40;3.20;;;10.50;87.00;;;;;;5045870;28;20261;-74
2022/10/08 06:13:50;;;;;;;3.70;3.07;;;10.60;87.60;;;;;;5046507;28;20234;-73
2022/10/08 06:16:16;;;;;;;7.45;2.85;;;10.70;87.40;;;;;;5053568;28;20180;-74
2022/10/08 06:18:42;;;;;;;4.10;3.80;;;10.80;87.40;;;;;;5049348;28;20192;-74
2022/10/08 06:21:13;;;;;;;5.47;4.20;;;10.80;86.70;;;;;;5048523;28;20215;-74
2022/10/08 06:23:44;;;;;;;5.40;4.15;;;10.90;86.60;;;;;;5049420;28;20180;-74
2022/10/08 06:26:09;;;;;;;4.20;3.90;;;10.90;86.80;;;;;;5050756;28;20198;-74
2022/10/08 06:28:37;;;;;;;4.60;4.18;;;11.00;86.90;;;;;;5046723;28;20183;-74
2022/10/08 06:31:03;;;;;;;4.22;3.30;;;11.10;86.90;;;;;;5051054;28;20266;-74
2022/10/08 06:33:29;;;;;;;3.72;3.53;;;11.20;86.60;;;;;;5052127;28;20211;-74
2022/10/08 06:35:55;;;;;;;4.38;3.95;;;11.20;86.70;;;;;;5047365;28;20891;-74
2022/10/08 06:38:21;;;;;;;4.10;3.70;;;11.30;86.60;;;;;;5057801;28;20767;-74
2022/10/08 06:40:47;;;;;;;5.10;3.53;;;11.40;86.70;;;;;;5049444;28;20210;-74
2022/10/08 06:43:15;;;;;;;4.65;3.95;;;11.40;86.60;;;;;;5047029;28;20240;-74
2022/10/08 06:45:42;;;;;;;4.10;3.83;;;11.50;86.60;;;;;;5044576;28;20195;-74
2022/10/08 06:48:09;;;;;;;4.20;3.83;;;11.60;86.60;;;;;;5056072;28;20171;-74
2022/10/08 06:50:35;;;;;;;3.90;3.60;;;11.60;86.30;;;;;;5054181;28;20776;-74
2022/10/08 06:53:02;;;;;;;4.77;4.37;;;11.70;86.20;;;;;;5049832;28;20184;-74
2022/10/08 06:55:28;;;;;;;4.03;3.80;;;11.70;85.90;;;;;;5053527;28;20699;-75
2022/10/08 06:57:54;;;;;;;4.43;4.03;;;11.80;86.60;;;;;;5057568;28;20261;-75
2022/10/08 07:00:20;;;;;;;5.88;5.10;;;11.90;86.10;;;;;;5048899;28;20219;-75
2022/10/08 07:02:45;;;;;;;5.78;4.47;;;12.00;85.80;;;;;;5052112;28;20188;-75
2022/10/08 07:05:12;;;;;;;4.85;4.38;;;12.10;86.20;;;;;;5050801;28;20263;-74
2022/10/08 07:07:38;;;;;;;4.57;4.18;;;12.20;86.10;;;;;;5049555;28;20188;-74
2022/10/08 07:10:04;;;;;;;4.43;3.88;;;12.30;85.80;;;;;;5045375;28;20184;-73
2022/10/08 07:12:31;;;;;;;3.80;3.50;;;12.40;85.40;;;;;;5054307;28;20179;-74
2022/10/08 07:14:57;;;;;;;4.93;4.45;;;12.50;84.90;;;;;;5047141;28;20187;-74
2022/10/08 07:17:25;;;;;;;9.05;4.20;;;12.60;85.10;;;;;;5055041;28;20265;-74
2022/10/08 07:19:51;;;;;;;9.45;4.35;;;12.80;85.00;;;;;;5052097;28;20206;-75
2022/10/08 07:22:17;;;;;;;11.80;5.15;;;12.90;84.60;;;;;;5052743;28;20181;-75
2022/10/08 07:24:43;;;;;;;5.68;5.18;;;13.00;85.00;;;;;;5055516;28;20183;-75
2022/10/08 07:27:08;;;;;;;5.05;4.65;;;13.20;85.50;;;;;;5050562;28;20489;-76
2022/10/08 07:29:35;;;;;;;7.30;5.25;;;13.40;85.40;;;;;;5050817;28;20249;-76
2022/10/08 07:32:01;;;;;;;5.25;4.75;;;13.60;84.70;;;;;;5048778;28;20210;-74
2022/10/08 07:34:26;;;;;;;5.18;4.68;;;13.90;84.20;;;;;;5049983;28;20211;-76
2022/10/08 07:36:52;;;;;;;5.80;4.95;;;14.40;82.90;;;;;;5053737;28;20183;-76
2022/10/08 07:39:18;;;;;;;5.85;5.28;;;15.10;82.20;;;;;;5053687;28;20182;-78
2022/10/08 07:41:45;;;;;;;7.68;5.25;;;15.90;84.00;;;;;;5054300;28;20188;-74
2022/10/08 07:44:12;;;;;;;8.23;5.18;;;16.90;82.20;;;;;;5054606;28;20580;-74
2022/10/08 07:46:52;;;;;;;5.68;5.18;;;17.90;80.80;;;;;;5057885;28;20565;-76
2022/10/08 07:49:18;;;;;;;6.60;5.20;;;19.00;76.90;;;;;;5052055;28;20222;-75
2022/10/08 07:51:45;;;;;;;6.30;5.75;;;20.00;73.80;;;;;;5057820;28;20180;-76
2022/10/08 07:54:16;;;;;;;5.53;5.07;;;20.90;69.00;;;;;;5048125;28;20199;-75
2022/10/08 07:56:42;;;;;;;5.55;5.15;;;21.70;68.60;;;;;;5050768;28;20952;-77
2022/10/08 07:59:08;;;;;;;7.38;5.57;;;22.50;68.10;;;;;;5055710;28;20210;-77
2022/10/08 08:01:34;;;;;;;13.45;6.95;;;23.30;65.60;;;;;;5054041;28;20205;-76
2022/10/08 08:04:02;;;;;;;6.28;5.78;;;24.10;64.30;;;;;;5052185;28;20190;-78
2022/10/08 08:06:29;;;;;;;9.65;6.38;;;24.60;63.30;;;;;;5060444;28;20871;-76
2022/10/08 08:08:55;;;;;;;7.25;5.53;;;25.20;61.80;;;;;;5063356;28;20184;-75
2022/10/08 08:11:23;;;;;;;6.43;5.78;;;25.80;61.70;;;;;;5055922;28;20253;-75
2022/10/08 08:13:49;;;;;;;5.90;5.43;;;26.40;60.90;;;;;;5055862;28;20175;-76
2022/10/08 08:16:18;;;;;;;9.57;5.88;;;27.00;60.10;;;;;;5053790;28;20180;-75
2022/10/08 08:18:46;;;;;;;5.97;5.47;;;27.50;58.10;;;;;;5053070;28;20188;-75
2022/10/08 08:21:13;;;;;;;6.13;5.68;;;27.90;57.60;;;;;;5058135;28;20238;-75
2022/10/08 08:23:45;;;;;;;5.38;4.82;;;28.20;56.70;;;;;;5052153;28;20207;-75
2022/10/08 08:26:14;;;;;;;6.93;6.00;;;28.50;58.00;;;;;;5050344;28;20656;-75
2022/10/08 08:28:40;;;;;;;5.63;5.13;;;29.10;56.30;;;;;;5053393;28;20936;-75
2022/10/08 08:31:17;;;;;;;5.38;4.97;;;29.60;55.10;;;;;;5047338;28;20179;-76
2022/10/08 08:33:50;;;;;;;5.07;4.50;;;30.10;55.30;;;;;;5053835;28;20236;-74
2022/10/08 08:36:22;;;;;;;5.07;4.72;;;30.60;54.60;;;;;;5050914;28;22280;-72
2022/10/08 08:38:48;;;;;;;4.78;4.47;;;31.30;53.20;;;;;;5051028;28;20179;-75
2022/10/08 08:41:22;;;;;;;5.35;4.60;;;31.80;52.20;;;;;;5055491;28;20219;-75
2022/10/08 08:43:57;;;;;;;5.82;4.53;;;32.20;51.20;;;;;;5046791;28;20191;-75
2022/10/08 08:46:24;;;;;;;4.13;3.92;;;32.70;51.40;;;;;;5048294;28;20178;-74
2022/10/08 08:48:54;;;;;;;9.60;4.38;;;33.10;50.70;;;;;;5046323;28;20193;-74
2022/10/08 08:51:20;;;;;;;4.80;4.43;;;33.60;50.00;;;;;;5046931;28;20179;-73
2022/10/08 08:53:46;;;;;;;3.92;3.78;;;34.00;49.90;;;;;;5049488;28;20681;-74
2022/10/08 08:56:15;;;;;;;4.47;4.18;;;34.30;49.10;;;;;;5051553;28;20176;-76
2022/10/08 08:58:48;;;;;;;5.13;4.45;;;34.50;48.30;;;;;;5049583;28;20275;-72
2022/10/08 09:01:34;;;;;;;5.75;5.35;;;34.60;49.80;;;;;;5050396;28;20382;-73
2022/10/08 09:04:25;;;;;;;5.57;5.28;;;34.80;48.20;;;;;;5047149;28;20227;-74
2022/10/08 09:06:52;;;;;;;5.43;5.00;;;34.90;45.00;;;;;;5055245;28;20187;-73
2022/10/08 09:09:41;;;;;;;7.32;4.95;;;35.00;48.30;;;;;;5052530;28;20179;-72
2022/10/08 09:12:18;;;;;;;5.38;4.90;;;35.10;47.30;;;;;;5044622;28;20195;-73
2022/10/08 09:14:55;;;;;;;4.90;4.70;;;35.20;49.00;;;;;;5049265;28;20186;-74
2022/10/08 09:17:29;;;;;;;4.68;4.28;;;35.30;48.80;;;;;;5043839;28;20261;-74
2022/10/08 09:20:02;;;;;;;4.13;3.92;;;35.40;48.10;;;;;;5046133;28;20219;-74
2022/10/08 09:22:36;;;;;;;4.22;4.00;;;35.70;48.00;;;;;;5048341;28;20186;-74
2022/10/08 09:25:11;;;;;;;4.00;3.67;;;35.90;46.20;;;;;;5049911;28;20575;-74
2022/10/08 09:27:50;;;;;;;4.35;3.97;;;36.20;47.20;;;;;;5044696;28;20182;-75
2022/10/08 09:30:31;;;;;;;3.78;3.58;;;36.60;46.10;;;;;;5050715;28;20186;-75
2022/10/08 09:33:15;;;;;;;3.28;3.17;;;36.90;46.10;;;;;;5052010;28;20251;-74
2022/10/08 09:35:52;;;;;;;3.65;3.45;;;37.20;46.70;;;;;;5047992;28;20221;-75
2022/10/08 09:38:23;;;;;;;3.58;3.22;;;37.50;45.00;;;;;;5047418;28;20179;-74
2022/10/08 09:41:17;;;;;;;3.15;3.03;;;37.60;46.30;;;;;;5039167;28;20666;-74
2022/10/08 09:43:44;;;;;;;2.15;2.13;;;37.80;43.10;;;;;;5048005;28;20186;-74
2022/10/08 09:46:30;;;;;;;2.38;2.28;;;38.00;45.50;;;;;;5044999;28;20213;-73
2022/10/08 09:48:56;;;;;;;2.50;2.40;;;38.20;43.80;;;;;;5047790;28;20179;-73
2022/10/08 09:51:22;;;;;;;2.45;2.30;;;38.50;45.10;;;;;;5048199;28;20191;-74
2022/10/08 09:53:53;;;;;;;3.58;2.25;;;38.70;44.70;;;;;;5037895;28;20179;-74
2022/10/08 09:56:27;;;;;;;3.70;2.10;;;38.70;40.50;;;;;;5050710;28;20189;-74
2022/10/08 09:58:59;;;;;;;2.00;1.90;;;38.70;43.90;;;;;;5047421;28;20900;-74
2022/10/08 10:01:27;;;;;;;1.80;1.70;;;38.90;44.50;;;;;;5046746;28;20255;-74
2022/10/08 10:04:01;;;;;;;2.08;2.00;;;39.00;42.90;;;;;;5042213;28;20686;-74
2022/10/08 10:06:32;;;;;;;1.85;1.40;;;39.00;42.30;;;;;;5050611;28;20194;-74
2022/10/08 10:09:09;;;;;;;1.90;1.90;;;38.80;40.80;;;;;;5050586;28;20178;-74
2022/10/08 10:12:10;;;;;;;2.58;1.80;;;38.60;39.60;;;;;;5045788;28;20194;-74
2022/10/08 10:15:02;;;;;;;1.92;1.92;;;38.50;39.90;;;;;;5046778;28;20585;-74
2022/10/08 10:17:52;;;;;;;4.55;2.20;;;38.20;40.20;;;;;;5046633;28;20195;-74
2022/10/08 10:20:35;;;;;;;2.00;1.95;;;37.80;39.00;;;;;;5045386;28;20226;-74
2022/10/08 10:23:14;;;;;;;2.40;2.20;;;37.70;41.30;;;;;;5049889;28;20190;-73
2022/10/08 10:25:59;;;;;;;1.73;1.63;;;37.60;41.90;;;;;;5043269;28;20192;-74
2022/10/08 10:28:46;;;;;;;1.33;1.33;;;37.60;41.90;;;;;;5046786;28;20184;-74
2022/10/08 10:31:17;;;;;;;1.30;1.30;;;37.60;41.50;;;;;;5045891;28;20186;-74
2022/10/08 10:34:17;;;;;;;1.60;1.60;;;37.80;43.00;;;;;;5049892;28;20183;-74
2022/10/08 10:37:14;;;;;;;2.00;1.95;;;38.00;41.30;;;;;;5049217;28;20920;-74
2022/10/08 10:39:43;;;;;;;1.63;1.63;;;38.40;40.10;;;;;;5002983;28;20266;-73
2022/10/08 10:42:49;;;;;;;1.90;1.80;;;38.60;41.80;;;;;;4985939;28;20343;-74
2022/10/08 10:45:29;;;;;;;1.45;1.38;;;38.80;39.50;;;;;;4920443;29;20251;-73
2022/10/08 10:47:55;;;;;;;1.60;1.60;;;38.70;38.20;;;;;;4926629;29;20194;-74
2022/10/08 10:50:57;;;;;;;2.25;1.70;;;38.20;41.00;;;;;;4919402;29;20596;-74
2022/10/08 10:53:29;;;;;;;2.15;2.03;;;37.90;39.50;;;;;;4922569;29;20749;-74
2022/10/08 10:56:19;;;;;;;1.95;1.95;;;37.80;42.30;;;;;;4922000;29;20187;-75
2022/10/08 10:59:05;;;;;;;1.50;1.50;;;37.90;39.80;;;;;;4928283;29;20210;-76
2022/10/08 11:01:42;;;;;;;1.90;1.80;;;37.90;41.50;;;;;;4932184;29;20239;-76
2022/10/08 11:04:07;;;;;;;1.63;1.63;;;38.00;42.60;;;;;;4931457;29;20322;-76
2022/10/08 11:06:52;;;;;;;3.03;1.88;;;38.00;41.00;;;;;;4928841;29;20274;-76
2022/10/08 11:09:23;;;;;;;1.60;1.60;;;37.90;40.10;;;;;;4937038;29;20195;-76
2022/10/08 11:12:00;;;;;;;1.58;1.58;;;37.90;40.70;;;;;;4933792;29;20194;-75
2022/10/08 11:14:47;;;;;;;1.63;1.58;;;37.90;40.30;;;;;;4935038;29;20274;-75
2022/10/08 11:17:21;;;;;;;1.65;1.60;;;37.90;40.00;;;;;;4990216;28;20205;-75
2022/10/08 11:20:09;;;;;;;2.15;1.38;;;37.90;40.30;;;;;;4990058;28;20345;-75
2022/10/08 11:22:41;;;;;;;2.05;1.95;;;37.70;41.30;;;;;;5055296;28;20199;-75
2022/10/08 11:25:27;;;;;;;1.67;1.60;;;37.30;40.30;;;;;;5057732;28;20197;-76
2022/10/08 11:28:19;;;;;;;1.75;1.65;;;36.90;40.70;;;;;;5058928;28;20179;-76
2022/10/08 11:31:01;;;;;;;1.20;1.20;;;36.50;40.80;;;;;;5062843;28;20199;-75
2022/10/08 11:33:27;;;;;;;1.10;1.10;;;36.20;40.10;;;;;;5055741;28;21221;-75
2022/10/08 11:36:17;;;;;;;1.20;1.20;;;35.90;39.40;;;;;;5058905;28;20179;-75
2022/10/08 11:38:58;;;;;;;1.80;1.70;;;35.80;40.40;;;;;;5059294;28;20226;-76
2022/10/08 11:41:56;;;;;;;2.15;1.67;;;35.80;40.70;;;;;;5054567;28;20214;-75
2022/10/08 11:44:22;;;;;;;1.42;1.42;;;35.50;41.40;;;;;;5034161;28;20249;-76
2022/10/08 11:46:48;;;;;;;1.90;1.80;;;35.00;42.80;;;;;;5034433;28;20740;-76
2022/10/08 11:49:15;;;;;;;1.77;1.70;;;34.90;41.10;;;;;;5024710;28;20214;-75
2022/10/08 11:51:45;;;;;;;3.20;1.70;;;34.80;41.90;;;;;;5027112;28;20975;-77
2022/10/08 11:54:33;;;;;;;1.48;1.48;;;34.60;42.00;;;;;;5033277;28;20179;-77
2022/10/08 11:57:19;;;;;;;1.70;1.60;;;34.50;41.90;;;;;;5048620;28;20834;-80
2022/10/08 12:00:23;;;;;;;3.00;1.58;;;34.50;42.60;;;;;;5054250;28;21142;-75
2022/10/08 12:02:53;;;;;;;2.05;1.73;;;34.80;42.20;;;;;;5030862;28;20226;-75
2022/10/08 12:05:22;;;;;;;4.20;1.80;;;35.20;41.70;;;;;;5027666;28;20180;-74
2022/10/08 12:07:50;;;;;;;2.08;1.60;;;35.50;41.00;;;;;;5031486;28;20206;-74
2022/10/08 12:10:16;;;;;;;1.63;1.63;;;35.70;41.10;;;;;;5026848;28;20270;-74
2022/10/08 12:13:01;;;;;;;1.40;1.30;;;35.90;40.40;;;;;;5028986;28;20578;-76
2022/10/08 12:15:27;;;;;;;2.25;1.60;;;36.10;39.80;;;;;;5024780;28;21078;-74
2022/10/08 12:17:54;;;;;;;1.33;1.33;;;36.20;40.40;;;;;;5026461;28;20183;-71
2022/10/08 12:20:29;;;;;;;2.13;2.03;;;36.20;40.30;;;;;;5026983;28;20434;-73
2022/10/08 12:23:12;;;;;;;1.85;1.77;;;36.10;40.50;;;;;;5053482;28;20847;-73
2022/10/08 12:26:01;;;;;;;1.70;1.60;;;36.10;40.20;;;;;;5055855;28;20576;-74
2022/10/08 12:28:27;;;;;;;1.60;1.50;;;36.20;40.30;;;;;;5049671;28;20503;-74
2022/10/08 12:31:13;;;;;;;6.22;1.70;;;36.30;40.80;;;;;;5046479;28;20190;-74
2022/10/08 12:33:40;;;;;;;2.40;2.20;;;36.10;40.10;;;;;;5045514;28;20187;-72
2022/10/08 12:36:19;;;;;;;1.65;1.55;;;35.80;40.00;;;;;;5050240;28;20175;-74
2022/10/08 12:39:16;;;;;;;1.40;1.35;;;35.60;41.00;;;;;;5054219;28;20663;-75
2022/10/08 12:42:12;;;;;;;2.60;2.00;;;35.40;40.70;;;;;;5046130;28;20202;-76
2022/10/08 12:45:05;;;;;;;1.95;1.95;;;35.40;40.30;;;;;;5030472;28;21014;-75
2022/10/08 12:47:36;;;;;;;2.08;1.60;;;35.10;40.20;;;;;;5028951;28;20180;-74
2022/10/08 12:50:24;;;;;;;1.70;1.65;;;34.80;39.90;;;;;;5033278;28;20231;-73
2022/10/08 12:52:51;;;;;;;1.83;1.83;;;34.30;41.50;;;;;;5027921;28;20187;-72
2022/10/08 12:55:20;;;;;;;5.85;1.50;;;34.10;42.20;;;;;;5027174;28;20184;-75
2022/10/08 12:57:47;;;;;;;1.88;1.77;;;34.00;42.00;;;;;;5031609;28;20211;-73
2022/10/08 13:00:27;;;;;;;6.57;1.48;;;34.00;42.20;;;;;;5030537;28;20219;-74
2022/10/08 13:03:03;;;;;;;1.58;1.58;;;34.20;42.20;;;;;;5032918;28;20291;-74
2022/10/08 13:05:38;;;;;;;1.70;1.70;;;34.30;41.60;;;;;;5027131;28;20293;-74
2022/10/08 13:08:28;;;;;;;1.73;1.63;;;34.40;41.40;;;;;;5024327;28;20222;-72
2022/10/08 13:10:58;;;;;;;2.78;1.70;;;34.60;40.60;;;;;;5024231;28;20302;-74
2022/10/08 13:13:34;;;;;;;1.77;1.67;;;34.80;41.20;;;;;;5005275;28;20682;-73
2022/10/08 13:16:06;;;;;;;1.70;1.70;;;34.80;41.60;;;;;;5021875;28;20199;-74